Time;durP1;ratioP1;P1;durP2;ratioP2;P2;SDS_P1;SDS_P2;PMS_P1;PMS_P2;Temp;Humidity;BMP_temperature;BMP_pressure;BME280_temperature;BME280_humidity;BME280_pressure;Samples;Min_cycle;Max_cycle;Signal;HPM_P1;HPM_P2
2022/12/19 00:00:29;;;;;;;926.90;687.07;;;-1.60;99.90;;;;;;5049648;28;20229;-53
2022/12/19 00:02:58;;;;;;;838.07;702.83;;;-1.60;99.90;;;;;;5048884;28;20233;-53
2022/12/19 00:05:26;;;;;;;1139.33;815.87;;;-1.60;99.90;;;;;;5049904;28;20236;-53
2022/12/19 00:07:54;;;;;;;940.60;791.10;;;-1.50;99.90;;;;;;5049234;28;20246;-53
2022/12/19 00:10:23;;;;;;;953.27;806.60;;;-1.60;99.90;;;;;;5049860;28;20228;-51
2022/12/19 00:12:51;;;;;;;736.70;657.60;;;-1.50;99.90;;;;;;5046831;28;20264;-54
2022/12/19 00:15:21;;;;;;;945.50;841.30;;;-1.50;99.90;;;;;;5049567;28;20215;-53
2022/12/19 00:17:49;;;;;;;900.03;768.30;;;-1.40;99.90;;;;;;5048141;28;20687;-53
2022/12/19 00:20:17;;;;;;;677.63;615.90;;;-1.40;99.90;;;;;;5049420;28;20296;-52
2022/12/19 00:22:46;;;;;;;529.77;481.93;;;-1.40;99.90;;;;;;5049053;28;20310;-52
2022/12/19 00:25:16;;;;;;;771.30;687.57;;;-1.30;99.90;;;;;;5049273;28;20236;-52
2022/12/19 00:27:46;;;;;;;591.90;540.17;;;-1.30;99.90;;;;;;5049304;28;20213;-52
2022/12/19 00:30:14;;;;;;;667.53;594.17;;;-1.30;99.90;;;;;;5039888;28;20655;-52
2022/12/19 00:32:43;;;;;;;632.20;574.10;;;-1.30;99.90;;;;;;5048571;28;21048;-52
2022/12/19 00:35:12;;;;;;;814.37;734.83;;;-1.30;99.90;;;;;;5049289;28;20316;-52
2022/12/19 00:37:40;;;;;;;804.07;724.70;;;-1.20;99.90;;;;;;5048214;28;20300;-52
2022/12/19 00:40:16;;;;;;;759.43;677.23;;;-1.20;99.90;;;;;;5048767;28;20237;-53
2022/12/19 00:42:45;;;;;;;609.03;547.13;;;-1.30;99.90;;;;;;5048635;28;20288;-52
2022/12/19 00:45:20;;;;;;;493.73;442.07;;;-1.20;99.90;;;;;;5048825;28;20581;-51
2022/12/19 00:47:49;;;;;;;622.57;558.97;;;-1.20;99.90;;;;;;5049159;28;20577;-52
2022/12/19 00:50:17;;;;;;;489.57;436.87;;;-1.20;99.90;;;;;;5047815;28;20261;-53
2022/12/19 00:52:45;;;;;;;683.13;610.43;;;-1.20;99.90;;;;;;5048475;28;20229;-52
2022/12/19 00:55:14;;;;;;;673.00;603.20;;;-1.30;99.90;;;;;;5048351;28;20211;-53
2022/12/19 00:57:46;;;;;;;537.70;484.30;;;-1.20;99.90;;;;;;5033599;28;20213;-52
2022/12/19 01:00:16;;;;;;;818.67;740.27;;;-1.10;99.90;;;;;;5046890;28;20293;-52
2022/12/19 01:02:44;;;;;;;773.97;695.57;;;-1.20;99.90;;;;;;5045800;28;20263;-52
2022/12/19 01:05:14;;;;;;;539.47;483.50;;;-1.20;99.90;;;;;;5047155;28;20241;-52
2022/12/19 01:07:42;;;;;;;1143.43;599.27;;;-1.20;99.90;;;;;;5048705;28;20244;-53
2022/12/19 01:10:10;;;;;;;464.70;427.57;;;-1.30;99.90;;;;;;5048765;28;20663;-52
2022/12/19 01:12:46;;;;;;;460.80;419.80;;;-1.30;99.90;;;;;;5048123;28;20253;-52
2022/12/19 01:15:20;;;;;;;791.87;708.30;;;-1.30;99.90;;;;;;5048788;28;20765;-52
2022/12/19 01:17:49;;;;;;;604.67;548.90;;;-1.20;99.90;;;;;;5052623;28;20241;-52
2022/12/19 01:20:20;;;;;;;509.83;469.33;;;-1.20;99.90;;;;;;5052621;28;20228;-52
2022/12/19 01:22:57;;;;;;;885.80;799.40;;;-1.20;99.90;;;;;;5052332;28;20230;-52
2022/12/19 01:25:27;;;;;;;641.93;583.63;;;-1.10;99.90;;;;;;5052778;28;20209;-53
2022/12/19 01:27:56;;;;;;;518.60;474.43;;;-1.10;99.90;;;;;;5051846;28;20201;-53
2022/12/19 01:30:24;;;;;;;699.83;635.13;;;-1.10;99.90;;;;;;5052575;28;20280;-54
2022/12/19 01:32:53;;;;;;;588.00;450.63;;;-1.00;99.90;;;;;;5051934;28;20706;-53
2022/12/19 01:35:22;;;;;;;556.77;495.93;;;-1.00;99.90;;;;;;5051861;28;20280;-54
2022/12/19 01:37:51;;;;;;;692.60;633.23;;;-1.10;99.90;;;;;;5051806;28;20209;-51
2022/12/19 01:40:36;;;;;;;912.23;779.43;;;-1.10;99.90;;;;;;5051731;28;20233;-53
2022/12/19 01:43:05;;;;;;;510.03;459.30;;;-1.10;99.90;;;;;;5051699;28;20257;-53
2022/12/19 01:45:35;;;;;;;702.57;630.63;;;-1.10;99.90;;;;;;5052435;28;20202;-52
2022/12/19 01:48:17;;;;;;;560.20;504.90;;;-1.10;99.90;;;;;;5051469;28;20209;-52
2022/12/19 01:50:58;;;;;;;656.97;558.27;;;-1.10;99.90;;;;;;5051838;28;20678;-52
2022/12/19 01:53:33;;;;;;;837.77;616.27;;;-1.10;99.90;;;;;;5051364;28;20243;-53
2022/12/19 01:56:05;;;;;;;601.20;494.23;;;-1.20;99.90;;;;;;5052115;28;20245;-54
2022/12/19 01:58:39;;;;;;;560.87;511.33;;;-1.20;99.90;;;;;;5052155;28;20240;-51
2022/12/19 02:01:08;;;;;;;489.13;444.77;;;-1.20;99.90;;;;;;5052103;28;20226;-52
2022/12/19 02:03:37;;;;;;;772.23;694.53;;;-1.20;99.90;;;;;;5051011;28;20213;-52
2022/12/19 02:06:09;;;;;;;877.77;788.77;;;-1.20;99.90;;;;;;5040181;28;20213;-52
2022/12/19 02:08:38;;;;;;;671.47;606.90;;;-1.20;99.90;;;;;;5050835;28;20217;-52
2022/12/19 02:11:06;;;;;;;856.70;732.17;;;-1.20;99.90;;;;;;5050179;28;20233;-53
2022/12/19 02:13:34;;;;;;;485.13;438.10;;;-1.10;99.90;;;;;;5050226;28;20621;-52
2022/12/19 02:16:09;;;;;;;579.40;526.90;;;-1.10;99.90;;;;;;5050600;28;20240;-53
2022/12/19 02:18:46;;;;;;;991.80;731.47;;;-1.10;99.90;;;;;;5050426;28;20205;-51
2022/12/19 02:21:43;;;;;;;696.70;417.80;;;-1.10;99.90;;;;;;5050152;28;20225;-52
2022/12/19 02:24:49;;;;;;;1187.00;902.80;;;-1.10;99.90;;;;;;5040440;28;20285;-52
2022/12/19 02:28:05;;;;;;;808.07;726.17;;;-1.10;99.90;;;;;;5050354;28;20202;-52
2022/12/19 02:30:45;;;;;;;690.50;626.77;;;-1.00;99.90;;;;;;5050264;28;20233;-51
2022/12/19 02:33:18;;;;;;;759.00;612.73;;;-1.00;99.90;;;;;;5049720;28;20220;-53
2022/12/19 02:35:54;;;;;;;652.47;583.20;;;-1.00;99.90;;;;;;5048455;28;20206;-52
2022/12/19 02:38:30;;;;;;;992.27;687.53;;;-1.00;99.90;;;;;;5050050;28;20210;-55
2022/12/19 02:41:03;;;;;;;569.57;421.43;;;-0.90;99.90;;;;;;5050115;28;20304;-51
2022/12/19 02:43:34;;;;;;;1249.27;714.67;;;-0.90;99.90;;;;;;5049547;28;20212;-52
2022/12/19 02:46:06;;;;;;;1156.30;742.60;;;-0.90;99.90;;;;;;5050123;28;20202;-53
2022/12/19 02:48:34;;;;;;;574.60;518.37;;;-0.90;99.90;;;;;;5050158;28;20214;-53
2022/12/19 02:51:03;;;;;;;975.13;709.70;;;-0.80;99.90;;;;;;5049670;28;20245;-51
2022/12/19 02:53:32;;;;;;;791.63;714.77;;;-0.90;99.90;;;;;;5048977;28;20288;-53
2022/12/19 02:56:24;;;;;;;1025.70;677.60;;;-1.00;99.90;;;;;;5049577;28;20222;-52
2022/12/19 02:59:08;;;;;;;647.30;578.30;;;-1.00;99.90;;;;;;5049220;28;20214;-52
2022/12/19 03:01:47;;;;;;;1145.17;814.93;;;-1.10;99.90;;;;;;5047748;28;20253;-53
2022/12/19 03:04:22;;;;;;;891.03;797.47;;;-1.00;99.90;;;;;;5042510;28;20213;-51
2022/12/19 03:06:55;;;;;;;559.97;493.97;;;-1.00;99.90;;;;;;5049306;28;20653;-52
2022/12/19 03:09:31;;;;;;;757.83;675.80;;;-1.10;99.90;;;;;;5010651;28;1139492;-53
2022/12/19 03:12:06;;;;;;;731.33;661.83;;;-1.00;99.90;;;;;;5050358;28;20563;-52
2022/12/19 03:14:37;;;;;;;630.70;573.67;;;-0.90;99.90;;;;;;5050509;28;20209;-53
2022/12/19 03:17:08;;;;;;;430.13;391.63;;;-0.90;99.90;;;;;;5050268;28;20241;-52
2022/12/19 03:19:40;;;;;;;470.50;426.67;;;-0.90;99.90;;;;;;5050224;28;20210;-53
2022/12/19 03:22:08;;;;;;;1425.10;684.60;;;-0.80;99.90;;;;;;5050212;28;20256;-53
2022/12/19 03:24:36;;;;;;;724.73;600.70;;;-0.80;99.90;;;;;;5050265;28;20687;-52
2022/12/19 03:27:11;;;;;;;504.80;461.77;;;-0.80;99.90;;;;;;5050563;28;20206;-52
2022/12/19 03:29:44;;;;;;;627.57;569.07;;;-0.90;99.90;;;;;;5049306;28;20248;-52
2022/12/19 03:32:18;;;;;;;610.10;547.10;;;-0.80;99.90;;;;;;5049395;28;20222;-52
2022/12/19 03:34:50;;;;;;;586.07;528.07;;;-0.90;99.90;;;;;;5044753;28;20237;-52
2022/12/19 03:37:22;;;;;;;337.13;301.80;;;-0.80;99.90;;;;;;5049586;28;20205;-52
2022/12/19 03:39:54;;;;;;;857.17;631.37;;;-0.80;99.90;;;;;;5049693;28;20328;-52
2022/12/19 03:45:13;;;;;;;615.70;554.00;;;-0.90;99.90;;;;;;5050075;28;20241;-52
2022/12/19 03:47:48;;;;;;;588.10;528.67;;;-0.90;99.90;;;;;;5050095;28;20636;-53
2022/12/19 03:50:17;;;;;;;511.17;459.47;;;-0.90;99.90;;;;;;5049544;28;20589;-52
2022/12/19 03:52:52;;;;;;;620.20;552.40;;;-0.80;99.90;;;;;;5049422;28;20316;-52
2022/12/19 03:55:27;;;;;;;1017.27;648.40;;;-0.80;99.90;;;;;;5049823;28;20210;-51
2022/12/19 03:57:59;;;;;;;1348.13;705.70;;;-0.80;99.90;;;;;;5048605;28;20213;-51
2022/12/19 04:00:28;;;;;;;721.67;618.07;;;-0.80;99.90;;;;;;5049515;28;20243;-52
2022/12/19 04:02:59;;;;;;;920.60;692.43;;;-0.80;99.90;;;;;;5049568;28;20249;-52
2022/12/19 04:05:29;;;;;;;452.67;407.87;;;-0.80;99.90;;;;;;5049646;28;20221;-53
2022/12/19 04:07:59;;;;;;;392.83;306.07;;;-0.80;99.90;;;;;;5049526;28;20248;-53
2022/12/19 04:10:28;;;;;;;1076.50;490.53;;;-0.80;99.90;;;;;;5049687;28;20650;-52
2022/12/19 04:13:02;;;;;;;912.20;626.40;;;-0.80;99.90;;;;;;5048159;28;20221;-52
2022/12/19 04:15:37;;;;;;;1263.30;717.80;;;-0.90;99.90;;;;;;5049548;28;20229;-52
2022/12/19 04:18:10;;;;;;;1211.80;722.63;;;-0.90;99.90;;;;;;5035838;28;20256;-54
2022/12/19 04:20:44;;;;;;;967.27;510.53;;;-0.80;99.90;;;;;;5049652;28;20439;-52
2022/12/19 04:23:17;;;;;;;412.60;370.47;;;-0.80;99.90;;;;;;5035440;28;20643;-52
2022/12/19 04:25:49;;;;;;;497.87;452.77;;;-0.80;99.90;;;;;;5049646;28;20619;-52
2022/12/19 04:28:22;;;;;;;1088.57;726.00;;;-0.70;99.90;;;;;;5044323;28;20234;-52
2022/12/19 04:30:51;;;;;;;765.93;558.00;;;-0.70;99.90;;;;;;5049210;28;20251;-53
2022/12/19 04:33:21;;;;;;;1049.93;663.57;;;-0.70;99.90;;;;;;5048604;28;20222;-52
2022/12/19 04:35:49;;;;;;;636.63;550.03;;;-0.70;99.90;;;;;;5047877;28;20234;-53
2022/12/19 04:38:17;;;;;;;855.30;607.33;;;-0.70;99.90;;;;;;5049157;28;20252;-52
2022/12/19 04:40:45;;;;;;;888.37;594.73;;;-0.70;99.90;;;;;;5049180;28;20296;-52
2022/12/19 04:43:13;;;;;;;743.73;379.60;;;-0.80;99.90;;;;;;5048449;28;20663;-52
2022/12/19 04:45:42;;;;;;;429.27;383.40;;;-0.80;99.90;;;;;;5049025;28;20247;-52
2022/12/19 04:48:10;;;;;;;701.23;446.83;;;-0.80;99.90;;;;;;5049322;28;20214;-52
2022/12/19 04:50:39;;;;;;;830.10;412.27;;;-0.80;99.90;;;;;;5048755;28;20292;-51
2022/12/19 04:53:08;;;;;;;677.03;436.07;;;-0.70;99.90;;;;;;5047874;28;20236;-52
2022/12/19 04:55:36;;;;;;;1239.53;450.53;;;-0.70;99.90;;;;;;5048947;28;20271;-51
2022/12/19 04:58:05;;;;;;;641.63;424.43;;;-0.70;99.90;;;;;;5048165;28;20252;-52
2022/12/19 05:00:33;;;;;;;310.87;277.80;;;-0.70;99.90;;;;;;5047846;28;20641;-53
2022/12/19 05:03:02;;;;;;;771.87;572.90;;;-0.60;99.90;;;;;;5048069;28;20217;-52
2022/12/19 05:05:30;;;;;;;1266.37;586.37;;;-0.60;99.90;;;;;;5047889;28;20206;-51
2022/12/19 05:08:00;;;;;;;944.90;477.30;;;-0.60;99.90;;;;;;5048538;28;20636;-51
2022/12/19 05:10:28;;;;;;;729.70;518.23;;;-0.60;99.90;;;;;;5047734;28;20245;-52
2022/12/19 05:12:56;;;;;;;669.10;407.40;;;-0.70;99.90;;;;;;5046862;28;20225;-52
2022/12/19 05:15:24;;;;;;;746.97;419.73;;;-0.70;99.90;;;;;;5048482;28;20210;-53
2022/12/19 05:17:52;;;;;;;600.70;516.50;;;-0.70;99.90;;;;;;5048371;28;20673;-52
2022/12/19 05:20:20;;;;;;;767.10;485.33;;;-0.70;99.90;;;;;;5047072;28;20671;-53
2022/12/19 05:22:49;;;;;;;545.33;300.77;;;-0.60;99.90;;;;;;5046532;28;20218;-54
2022/12/19 05:25:18;;;;;;;662.77;487.03;;;-0.60;99.90;;;;;;5047241;28;20242;-52
2022/12/19 05:27:46;;;;;;;1397.03;533.90;;;-0.60;99.90;;;;;;5045977;28;20617;-51
2022/12/19 05:30:14;;;;;;;567.87;506.07;;;-0.50;99.90;;;;;;5047961;28;20291;-52
2022/12/19 05:32:42;;;;;;;513.97;353.60;;;-0.50;99.90;;;;;;5047645;28;20313;-52
2022/12/19 05:35:11;;;;;;;821.03;462.67;;;-0.60;99.90;;;;;;5040579;28;20285;-52
2022/12/19 05:37:39;;;;;;;934.70;442.03;;;-0.60;99.90;;;;;;5047670;28;20226;-52
2022/12/19 05:40:08;;;;;;;311.63;279.80;;;-0.60;99.90;;;;;;5047650;28;20637;-52
2022/12/19 05:42:38;;;;;;;868.17;482.77;;;-0.50;99.90;;;;;;5047350;28;20224;-52
2022/12/19 05:45:07;;;;;;;969.20;406.27;;;-0.50;99.90;;;;;;5038224;28;20293;-51
2022/12/19 05:47:35;;;;;;;549.63;282.97;;;-0.50;99.90;;;;;;5030238;28;20235;-52
2022/12/19 05:50:05;;;;;;;471.07;359.47;;;-0.50;99.90;;;;;;5031356;28;20227;-52
2022/12/19 05:52:33;;;;;;;783.07;471.00;;;-0.50;99.90;;;;;;5039465;28;20226;-52
2022/12/19 05:55:02;;;;;;;897.07;368.40;;;-0.50;99.90;;;;;;5046495;28;20663;-53
2022/12/19 05:57:30;;;;;;;1025.10;398.87;;;-0.50;99.90;;;;;;5048177;28;20213;-51
2022/12/19 05:59:59;;;;;;;759.53;404.23;;;-0.50;99.90;;;;;;5047800;28;20240;-51
2022/12/19 06:02:31;;;;;;;576.17;355.97;;;-0.40;99.90;;;;;;5046179;28;20226;-52
2022/12/19 06:05:00;;;;;;;802.50;359.33;;;-0.40;99.90;;;;;;5041107;28;20208;-52
2022/12/19 06:07:28;;;;;;;315.90;284.33;;;-0.30;99.90;;;;;;5042941;28;20249;-52
2022/12/19 06:09:57;;;;;;;617.87;298.83;;;-0.30;99.90;;;;;;5051023;28;20289;-53
2022/12/19 06:12:25;;;;;;;1150.57;421.47;;;-0.30;99.90;;;;;;5049844;28;20243;-53
2022/12/19 06:14:53;;;;;;;396.93;275.93;;;-0.30;99.90;;;;;;5050288;28;20240;-52
2022/12/19 06:17:23;;;;;;;1590.33;448.77;;;-0.30;99.90;;;;;;5046506;28;20246;-53
2022/12/19 06:19:51;;;;;;;1086.60;418.63;;;-0.30;99.90;;;;;;5040758;28;20299;-52
2022/12/19 06:22:20;;;;;;;993.23;366.00;;;-0.30;99.90;;;;;;5043954;28;20277;-52
2022/12/19 06:24:48;;;;;;;833.03;435.17;;;-0.30;99.90;;;;;;5050257;28;20208;-52
2022/12/19 06:27:16;;;;;;;242.60;192.37;;;-0.30;99.90;;;;;;5049854;28;20673;-53
2022/12/19 06:29:45;;;;;;;519.60;387.80;;;-0.30;99.90;;;;;;5046682;28;20297;-53
2022/12/19 06:32:13;;;;;;;1999.90;523.93;;;-0.30;99.90;;;;;;5046712;28;20271;-53
2022/12/19 06:34:42;;;;;;;532.20;345.03;;;-0.30;99.90;;;;;;5048796;28;20229;-52
2022/12/19 06:37:31;;;;;;;447.73;319.53;;;-0.30;99.90;;;;;;5046752;28;20223;-52
2022/12/19 06:39:59;;;;;;;1154.27;368.70;;;-0.30;99.90;;;;;;5047178;28;20702;-52
2022/12/19 06:42:26;;;;;;;929.80;306.93;;;-0.30;99.90;;;;;;5047944;28;20253;-52
2022/12/19 06:44:55;;;;;;;625.40;329.70;;;-0.40;99.90;;;;;;5048859;28;20472;-51
2022/12/19 06:47:24;;;;;;;555.63;334.40;;;-0.30;99.90;;;;;;5050752;28;20212;-53
2022/12/19 06:49:54;;;;;;;802.37;330.93;;;-0.30;99.90;;;;;;5046097;28;20296;-53
2022/12/19 06:52:22;;;;;;;245.13;161.07;;;-0.30;99.90;;;;;;5048795;28;20261;-52
2022/12/19 06:54:50;;;;;;;371.87;187.13;;;-0.30;99.90;;;;;;5047986;28;20317;-52
2022/12/19 06:57:18;;;;;;;235.77;202.37;;;-0.30;99.90;;;;;;5047589;28;20259;-52
2022/12/19 06:59:46;;;;;;;437.13;245.03;;;-0.30;99.90;;;;;;5044010;28;20786;-53
2022/12/19 07:02:27;;;;;;;185.73;149.93;;;-0.20;99.90;;;;;;5047381;28;20313;-53
2022/12/19 07:05:02;;;;;;;1049.30;300.70;;;-0.20;99.90;;;;;;5044415;28;20280;-52
2022/12/19 07:07:31;;;;;;;498.47;324.40;;;-0.20;99.90;;;;;;5043811;28;20218;-53
2022/12/19 07:09:59;;;;;;;385.07;241.10;;;-0.20;99.90;;;;;;5041455;28;20206;-53
2022/12/19 07:12:27;;;;;;;352.70;166.03;;;-0.10;99.90;;;;;;5036644;28;20261;-53
2022/12/19 07:14:55;;;;;;;253.63;176.53;;;-0.10;99.90;;;;;;5044838;28;20234;-53
2022/12/19 07:17:25;;;;;;;461.97;261.60;;;-0.10;99.90;;;;;;5042798;28;20301;-53
2022/12/19 07:19:55;;;;;;;225.00;145.30;;;-0.10;99.90;;;;;;5050081;28;20206;-52
2022/12/19 07:22:29;;;;;;;1017.43;285.53;;;-0.20;99.90;;;;;;5038313;28;20234;-51
2022/12/19 07:24:58;;;;;;;226.80;178.20;;;-0.10;99.90;;;;;;5030526;28;20209;-52
2022/12/19 07:27:28;;;;;;;236.73;168.67;;;-0.10;99.90;;;;;;5048743;28;20206;-52
2022/12/19 07:30:03;;;;;;;331.70;213.30;;;-0.10;99.90;;;;;;5043817;28;20200;-53
2022/12/19 07:32:31;;;;;;;325.17;205.83;;;-0.10;99.90;;;;;;5041303;28;20321;-51
2022/12/19 07:35:00;;;;;;;229.73;201.50;;;0.00;99.90;;;;;;5046448;28;20218;-52
2022/12/19 07:37:29;;;;;;;264.37;153.27;;;0.00;99.90;;;;;;5044721;28;20245;-54
2022/12/19 07:39:57;;;;;;;373.60;160.77;;;0.00;99.90;;;;;;5040681;28;20231;-52
2022/12/19 07:42:26;;;;;;;1086.53;266.70;;;0.00;99.90;;;;;;5046597;28;20226;-52
2022/12/19 07:45:00;;;;;;;165.93;120.77;;;0.00;99.90;;;;;;5047439;28;20219;-54
2022/12/19 07:47:28;;;;;;;228.43;135.17;;;0.00;99.90;;;;;;5047799;28;20209;-53
2022/12/19 07:49:56;;;;;;;698.90;236.47;;;0.10;99.90;;;;;;5046356;28;20821;-53
2022/12/19 07:52:25;;;;;;;158.07;89.03;;;0.10;99.90;;;;;;5042496;28;20288;-53
2022/12/19 07:54:54;;;;;;;443.47;148.07;;;0.10;99.90;;;;;;5039948;28;20210;-51
2022/12/19 07:57:22;;;;;;;148.13;99.23;;;0.10;99.90;;;;;;5041025;28;20286;-54
2022/12/19 07:59:50;;;;;;;375.57;192.57;;;0.10;99.90;;;;;;5048676;28;20209;-52
2022/12/19 08:02:19;;;;;;;216.13;121.93;;;0.10;99.90;;;;;;5036168;28;20231;-53
2022/12/19 08:04:47;;;;;;;481.93;174.17;;;0.20;99.90;;;;;;5048793;28;20202;-53
2022/12/19 08:07:15;;;;;;;229.80;139.67;;;0.20;99.90;;;;;;5047594;28;20295;-53
2022/12/19 08:09:43;;;;;;;410.67;154.93;;;0.20;99.90;;;;;;5049283;28;20253;-53
2022/12/19 08:12:13;;;;;;;568.00;188.37;;;0.20;99.90;;;;;;5047112;28;20226;-53
2022/12/19 08:14:41;;;;;;;514.73;170.60;;;0.20;99.90;;;;;;5041624;28;20309;-52
2022/12/19 08:17:09;;;;;;;228.13;179.77;;;0.20;99.90;;;;;;5048875;28;20303;-50
2022/12/19 08:19:48;;;;;;;787.97;231.67;;;0.20;99.90;;;;;;5049207;28;20280;-53
2022/12/19 08:22:16;;;;;;;435.23;167.27;;;0.20;99.90;;;;;;5047948;28;20235;-53
2022/12/19 08:24:44;;;;;;;1325.43;350.83;;;0.20;99.90;;;;;;5048525;28;20219;-52
2022/12/19 08:27:15;;;;;;;275.77;150.73;;;0.20;99.90;;;;;;5048167;28;20207;-52
2022/12/19 08:29:44;;;;;;;311.37;182.80;;;0.20;99.90;;;;;;5045449;28;20213;-53
2022/12/19 08:32:12;;;;;;;582.97;215.43;;;0.20;99.90;;;;;;5048301;28;20309;-50
2022/12/19 08:34:48;;;;;;;634.03;195.83;;;0.20;99.90;;;;;;5048601;28;20751;-53
2022/12/19 08:37:16;;;;;;;358.10;163.30;;;0.20;99.90;;;;;;5048084;28;20199;-52
2022/12/19 08:39:44;;;;;;;227.17;130.43;;;0.20;99.90;;;;;;5048795;28;20249;-51
2022/12/19 08:42:14;;;;;;;466.80;208.67;;;0.20;99.90;;;;;;5040880;28;20255;-53
2022/12/19 08:44:42;;;;;;;1999.90;452.52;;;0.30;99.90;;;;;;5048221;28;20431;-53
2022/12/19 08:47:11;;;;;;;764.00;234.97;;;0.40;99.90;;;;;;5048264;28;20686;-52
2022/12/19 08:49:39;;;;;;;160.23;113.37;;;0.30;99.90;;;;;;5048762;28;20742;-52
2022/12/19 08:52:07;;;;;;;266.13;144.27;;;0.40;99.90;;;;;;5047808;28;20314;-52
2022/12/19 08:54:35;;;;;;;349.77;134.33;;;0.40;99.90;;;;;;5046918;28;20235;-53
2022/12/19 08:57:04;;;;;;;583.33;166.50;;;0.40;99.90;;;;;;5048591;28;20207;-53
2022/12/19 08:59:33;;;;;;;378.37;152.97;;;0.40;99.90;;;;;;5048356;28;20660;-52
2022/12/19 09:02:02;;;;;;;203.40;142.53;;;0.50;99.90;;;;;;5048424;28;20589;-52
2022/12/19 09:04:33;;;;;;;148.60;120.30;;;0.50;99.90;;;;;;5048311;28;20206;-52
2022/12/19 09:07:21;;;;;;;646.03;188.73;;;0.50;99.90;;;;;;5046889;28;20214;-53
2022/12/19 09:09:49;;;;;;;597.93;191.27;;;0.40;99.90;;;;;;5048642;28;20719;-51
2022/12/19 09:12:17;;;;;;;237.50;122.77;;;0.40;99.90;;;;;;5047655;28;20297;-53
2022/12/19 09:14:47;;;;;;;305.77;157.63;;;0.40;99.90;;;;;;5048007;28;20226;-53
2022/12/19 09:17:15;;;;;;;203.40;133.47;;;0.50;99.90;;;;;;5048342;28;20737;-54
2022/12/19 09:19:43;;;;;;;323.57;197.23;;;0.60;99.90;;;;;;5047926;28;20286;-54
2022/12/19 09:22:16;;;;;;;157.87;123.60;;;0.60;99.90;;;;;;5048064;28;20233;-53
2022/12/19 09:24:44;;;;;;;186.90;139.00;;;0.60;99.90;;;;;;5048182;28;20293;-52
2022/12/19 09:27:12;;;;;;;339.63;147.23;;;0.60;99.90;;;;;;5048085;28;20297;-52
2022/12/19 09:29:42;;;;;;;303.53;132.63;;;0.60;99.90;;;;;;5047154;28;20243;-53
2022/12/19 09:32:12;;;;;;;260.17;146.37;;;0.70;99.90;;;;;;5047547;28;20272;-52
2022/12/19 09:34:40;;;;;;;173.90;128.93;;;0.70;99.90;;;;;;5048362;28;20256;-52
2022/12/19 09:37:11;;;;;;;170.93;127.60;;;0.70;99.90;;;;;;5048810;28;20259;-52
2022/12/19 09:39:45;;;;;;;287.40;138.83;;;0.80;99.90;;;;;;5052108;28;20579;-52
2022/12/19 09:42:30;;;;;;;152.97;110.20;;;0.80;99.90;;;;;;5039997;28;20234;-53
2022/12/19 09:45:39;;;;;;;278.33;187.37;;;0.70;99.90;;;;;;5045314;28;20688;-52
2022/12/19 09:48:14;;;;;;;287.77;142.90;;;0.80;99.90;;;;;;5038459;28;20313;-53
2022/12/19 09:50:58;;;;;;;201.33;145.33;;;0.80;99.90;;;;;;5041560;28;20204;-51
2022/12/19 09:53:55;;;;;;;178.97;129.80;;;0.90;99.90;;;;;;5050975;28;20208;-51
2022/12/19 09:56:28;;;;;;;166.80;105.43;;;0.80;99.90;;;;;;5050957;28;20247;-52
2022/12/19 09:59:04;;;;;;;1999.90;633.33;;;0.80;99.90;;;;;;5050517;28;20299;-53
2022/12/19 10:01:39;;;;;;;139.87;104.33;;;0.90;99.90;;;;;;5050504;28;20228;-54
2022/12/19 10:04:14;;;;;;;224.10;120.13;;;0.90;99.90;;;;;;5031297;28;20271;-54
2022/12/19 10:06:43;;;;;;;136.63;96.73;;;0.90;99.90;;;;;;5046070;28;20231;-52
2022/12/19 10:09:34;;;;;;;300.13;187.83;;;1.00;99.90;;;;;;5040893;28;20223;-52
2022/12/19 10:12:34;;;;;;;119.60;91.63;;;1.00;99.90;;;;;;5050589;28;20238;-52
2022/12/19 10:15:26;;;;;;;494.40;193.00;;;1.00;99.90;;;;;;5048558;28;21125;-53
2022/12/19 10:18:15;;;;;;;206.33;119.80;;;1.10;99.90;;;;;;5050991;28;20200;-52
2022/12/19 10:20:50;;;;;;;170.77;101.57;;;1.00;99.90;;;;;;5051179;28;20379;-52
2022/12/19 10:23:53;;;;;;;1441.13;393.90;;;1.00;99.90;;;;;;5048104;28;20223;-52
2022/12/19 10:26:26;;;;;;;124.03;100.07;;;1.20;99.90;;;;;;5050748;28;20208;-52
2022/12/19 10:29:13;;;;;;;142.43;107.80;;;1.10;99.90;;;;;;5051074;28;20305;-52
2022/12/19 10:31:50;;;;;;;100.40;66.57;;;1.20;99.90;;;;;;5050951;28;20270;-53
2022/12/19 10:34:23;;;;;;;339.17;148.13;;;1.20;99.90;;;;;;5047952;28;20217;-52
2022/12/19 10:36:56;;;;;;;226.57;117.43;;;1.20;99.90;;;;;;5048976;28;20220;-52
2022/12/19 10:39:53;;;;;;;139.63;123.47;;;1.30;99.90;;;;;;5049886;28;20207;-52
2022/12/19 10:42:32;;;;;;;111.93;77.47;;;1.20;99.90;;;;;;5050751;28;20223;-52
2022/12/19 10:45:04;;;;;;;323.43;140.63;;;1.20;99.90;;;;;;5050388;28;20670;-53
2022/12/19 10:47:32;;;;;;;178.23;120.87;;;1.30;99.90;;;;;;5043771;28;20211;-52
2022/12/19 10:50:00;;;;;;;249.97;120.97;;;1.30;99.90;;;;;;5050057;28;20710;-52
2022/12/19 10:52:53;;;;;;;315.27;138.20;;;1.30;99.90;;;;;;5049483;28;20274;-53
2022/12/19 10:55:38;;;;;;;146.77;130.63;;;1.30;99.90;;;;;;5049915;28;20234;-51
2022/12/19 10:58:20;;;;;;;232.87;137.77;;;1.30;99.90;;;;;;5050305;28;20277;-51
2022/12/19 11:01:04;;;;;;;424.90;172.87;;;1.40;99.90;;;;;;5050231;28;20262;-52
2022/12/19 11:03:33;;;;;;;439.17;172.07;;;1.40;99.90;;;;;;5049911;28;20287;-51
2022/12/19 11:06:03;;;;;;;234.00;101.57;;;1.40;99.90;;;;;;5050739;28;20248;-52
2022/12/19 11:08:34;;;;;;;200.90;85.47;;;1.40;99.90;;;;;;5041652;28;20242;-53
2022/12/19 11:11:13;;;;;;;150.20;109.33;;;1.40;99.90;;;;;;5048959;28;20291;-53
2022/12/19 11:14:21;;;;;;;244.93;142.20;;;1.50;99.90;;;;;;5043609;28;20205;-52
2022/12/19 11:17:35;;;;;;;413.00;154.60;;;1.50;99.90;;;;;;5040424;28;20221;-53
2022/12/19 11:20:24;;;;;;;384.23;125.17;;;1.50;99.90;;;;;;5048023;28;20216;-53
2022/12/19 11:23:15;;;;;;;469.80;262.33;;;1.50;99.90;;;;;;5044585;28;20236;-53
2022/12/19 11:26:07;;;;;;;176.83;116.53;;;1.60;99.90;;;;;;5047003;28;20285;-54
2022/12/19 11:28:58;;;;;;;375.93;142.60;;;1.60;99.90;;;;;;5047497;28;20760;-52
2022/12/19 11:31:48;;;;;;;364.03;145.77;;;1.60;99.90;;;;;;5037287;28;20222;-52
2022/12/19 11:34:36;;;;;;;199.77;124.60;;;1.60;99.90;;;;;;5045933;28;20235;-53
2022/12/19 11:37:17;;;;;;;157.67;104.60;;;1.60;99.90;;;;;;5044748;28;20256;-53
2022/12/19 11:39:50;;;;;;;185.93;102.97;;;1.70;99.90;;;;;;5048743;28;20232;-53
2022/12/19 11:42:24;;;;;;;284.83;117.60;;;1.70;99.90;;;;;;5046517;28;20225;-51
2022/12/19 11:44:59;;;;;;;134.53;88.93;;;1.80;99.90;;;;;;5048623;28;20295;-53
2022/12/19 11:47:35;;;;;;;247.67;97.37;;;1.80;99.90;;;;;;5046159;28;20248;-53
2022/12/19 11:50:13;;;;;;;134.63;101.47;;;1.80;99.90;;;;;;5048276;28;20231;-53
2022/12/19 11:52:47;;;;;;;289.17;140.80;;;1.80;99.90;;;;;;5046979;28;20260;-53
2022/12/19 11:55:42;;;;;;;300.27;137.87;;;1.80;99.90;;;;;;5041585;28;20225;-52
2022/12/19 11:58:13;;;;;;;252.13;108.10;;;1.80;99.90;;;;;;5049100;28;20665;-52
2022/12/19 12:00:51;;;;;;;135.93;79.00;;;1.90;99.90;;;;;;5047989;28;20955;-52
2022/12/19 12:03:44;;;;;;;287.87;164.60;;;1.90;99.90;;;;;;5042106;28;20956;-52
2022/12/19 12:06:33;;;;;;;283.57;121.90;;;1.90;99.90;;;;;;5032598;28;20205;-52
2022/12/19 12:09:17;;;;;;;122.33;68.40;;;1.90;99.90;;;;;;5048590;28;20682;-51
2022/12/19 12:12:15;;;;;;;197.43;98.07;;;2.00;99.90;;;;;;5046138;28;20236;-53
2022/12/19 12:15:34;;;;;;;143.20;109.00;;;2.00;99.90;;;;;;5037226;28;20210;-54
2022/12/19 12:18:37;;;;;;;149.20;111.30;;;2.00;99.90;;;;;;5036861;28;20206;-53
2022/12/19 12:21:31;;;;;;;208.70;141.37;;;2.10;99.90;;;;;;5047530;28;20233;-53
2022/12/19 12:24:32;;;;;;;301.27;161.43;;;2.10;99.90;;;;;;5047797;28;20718;-53
2022/12/19 12:27:34;;;;;;;105.17;76.07;;;2.10;99.90;;;;;;5048942;28;20233;-51
2022/12/19 12:30:24;;;;;;;135.20;119.07;;;2.20;99.90;;;;;;5038016;28;20218;-53
2022/12/19 12:33:27;;;;;;;199.23;104.67;;;2.20;99.90;;;;;;5046754;28;20232;-52
2022/12/19 12:36:26;;;;;;;137.17;104.80;;;2.20;99.90;;;;;;5046534;28;20222;-53
2022/12/19 12:39:20;;;;;;;112.63;81.73;;;2.20;99.90;;;;;;5048724;28;20216;-52
2022/12/19 12:42:11;;;;;;;1491.73;334.90;;;2.20;99.90;;;;;;5047928;28;20229;-53
2022/12/19 12:44:41;;;;;;;215.07;100.63;;;2.40;99.90;;;;;;5047290;28;20235;-52
2022/12/19 12:47:19;;;;;;;212.53;118.03;;;2.30;99.90;;;;;;5046431;28;20263;-52